Strona główna
METAR-TAF:

METAR-TAF

Lotnisko :

Port lotniczy Mahé

Victoria, Mahé, Seszele

Szerokość geograficzna: 04-40S, Długość geograficzna: 055-31E, wysokość: 3 m

Aktualna obserwacja pogody

Raport powstał 16 minut temu, godzina 05:00 UTC
Wiatr 8 kt od wschodnio-południowy wschód
Temperatura 30°C
Wilgotność 70%
Ciśnienie 1010 hPa
Widzialność 10 km lub więcej
Mało chmury na wysokości 2200 ft

METAR: FSIA 070500Z 11008KT 9999 FEW022 30/24 Q1010 NOSIG

czas: 09:16 (05:16 UTC)

Prognoza

Raport powstał 6 godziny i 13 minut temu, godzina 23:03 UTC
Prognoza ważna od 07 godzina 00 UTC do 07 godzina 24 UTC
Wiatr 2 kt z kierunków zmiennych
Widzialność 10 km lub więcej
Mało chmury na wysokości 2000 ft
Stopniowe zmiany
od 07 godzina 04 UTC do 07 godzina 06 UTC
Wiatr 5 kt od południowo-południowy wschód
Rozproszone chmury na wysokości 2000 ft

TAF: FSIA 062303Z 0700/0724 VRB02KT 9999 FEW020 BECMG 0704/0706 15005KT SCT020

Obserwacja i prognoza pogody dla ponad 4000 lotnisk (raport METAR i TAF).

Dostępne stacje oznaczono żółtymi i czerwonymi punktami na mapie.

Najedź kursorem aby zobaczyć nazwę stacji.

Kliknij aby zobaczyć obserwacje i prognozy pogody.

Aby zmienić mapę: kliknij na zielony przycisk z czarnym krzyżykiem, aby powiększyć; na zielony przycisk z myślnikiem, aby pomniejszyć; na zielone strzałki, aby przejść do map sąsiednich.


METAR-TAF: